createdAt,value
2023-03-25T00:01:20.094Z,0.73
2023-03-25T00:03:50.764Z,0.70
2023-03-25T00:06:19.873Z,0.82
2023-03-25T00:08:48.539Z,0.60
2023-03-25T00:11:17.546Z,0.52
2023-03-25T00:13:46.199Z,0.57
2023-03-25T00:16:14.816Z,0.50
2023-03-25T00:18:43.777Z,0.63
2023-03-25T00:21:13.767Z,1.13
2023-03-25T00:23:43.115Z,0.47
2023-03-25T00:26:11.735Z,0.82
2023-03-25T00:28:41.062Z,0.57
2023-03-25T00:31:10.708Z,0.60
2023-03-25T00:33:41.680Z,0.82
2023-03-25T00:36:13.766Z,0.80
2023-03-25T00:38:43.962Z,0.70
2023-03-25T00:41:14.790Z,0.70
2023-03-25T00:43:43.253Z,0.70
2023-03-25T00:46:11.865Z,1.00
2023-03-25T00:48:41.325Z,0.40
2023-03-25T00:51:10.401Z,0.47
2023-03-25T00:53:39.636Z,0.65
2023-03-25T00:56:09.851Z,0.55
2023-03-25T00:58:38.528Z,0.85
2023-03-25T01:01:13.404Z,0.90
2023-03-25T01:03:43.956Z,0.70
2023-03-25T01:06:13.797Z,1.38
2023-03-25T01:08:42.801Z,0.57
2023-03-25T01:11:20.808Z,0.60
2023-03-25T01:13:50.185Z,0.80
2023-03-25T01:16:19.294Z,0.85
2023-03-25T01:18:47.999Z,0.73
2023-03-25T01:21:16.928Z,0.75
2023-03-25T01:23:45.577Z,1.23
2023-03-25T01:26:14.289Z,1.15
2023-03-25T01:28:45.030Z,0.63
2023-03-25T01:31:14.700Z,1.27
2023-03-25T01:33:43.514Z,1.05
2023-03-25T01:36:12.947Z,0.77
2023-03-25T01:38:42.410Z,0.75
2023-03-25T01:41:11.709Z,1.05
2023-03-25T01:43:40.467Z,0.85
2023-03-25T01:46:15.194Z,1.08
2023-03-25T01:48:45.480Z,1.08
2023-03-25T01:51:16.530Z,1.40
2023-03-25T01:53:45.373Z,1.77
2023-03-25T01:56:15.516Z,1.70
2023-03-25T01:58:45.828Z,1.17
2023-03-25T02:01:21.840Z,1.45
2023-03-25T02:03:53.061Z,1.55
2023-03-25T02:06:24.730Z,1.45
2023-03-25T02:08:55.245Z,2.30
2023-03-25T02:11:29.001Z,1.55
2023-03-25T02:13:59.310Z,1.45
2023-03-25T02:16:33.490Z,1.90
2023-03-25T02:19:10.973Z,1.25
2023-03-25T02:21:54.486Z,1.48
2023-03-25T02:24:37.942Z,1.85
2023-03-25T02:27:41.919Z,1.15
2023-03-25T02:30:17.540Z,1.25
2023-03-25T02:32:56.936Z,1.15
2023-03-25T02:35:31.446Z,1.65
2023-03-25T02:38:13.647Z,1.35
2023-03-25T02:40:46.419Z,1.60
2023-03-25T02:43:20.728Z,1.83
2023-03-25T02:45:52.481Z,1.52
2023-03-25T02:48:24.192Z,1.00
2023-03-25T02:50:54.483Z,1.50
2023-03-25T02:53:27.022Z,1.30
2023-03-25T02:55:57.644Z,1.58
2023-03-25T02:58:27.744Z,1.17
2023-03-25T03:00:58.949Z,1.58
2023-03-25T03:03:28.122Z,1.20
2023-03-25T03:05:59.393Z,1.10
2023-03-25T03:08:43.769Z,1.10
2023-03-25T03:11:15.613Z,1.20
2023-03-25T03:14:05.052Z,1.05
2023-03-25T03:16:35.965Z,1.00
2023-03-25T03:19:08.127Z,1.50
2023-03-25T03:21:41.956Z,1.25
2023-03-25T03:24:17.699Z,0.98
2023-03-25T03:26:48.386Z,1.23
2023-03-25T03:29:19.121Z,1.00
2023-03-25T03:32:05.964Z,1.60
2023-03-25T03:34:41.193Z,1.02
2023-03-25T03:37:11.435Z,1.10
2023-03-25T03:39:41.984Z,0.50
2023-03-25T03:42:12.790Z,0.90
2023-03-25T03:44:43.199Z,0.88
2023-03-25T03:47:14.343Z,1.20
2023-03-25T03:49:44.694Z,0.77
2023-03-25T03:52:15.294Z,1.38
2023-03-25T03:54:47.704Z,2.30
2023-03-25T03:57:18.976Z,0.90
2023-03-25T03:59:49.415Z,1.05
2023-03-25T04:02:24.435Z,0.95
2023-03-25T04:04:53.934Z,0.88
2023-03-25T04:07:25.590Z,1.25
2023-03-25T04:10:02.766Z,1.00
2023-03-25T04:12:33.525Z,1.33
2023-03-25T04:15:03.201Z,1.33
2023-03-25T04:17:33.196Z,0.82
2023-03-25T04:20:09.038Z,1.02
2023-03-25T04:22:38.619Z,0.50
2023-03-25T04:25:10.124Z,0.50
2023-03-25T04:27:39.146Z,1.15
2023-03-25T04:30:08.849Z,0.70
2023-03-25T04:32:37.534Z,1.23
2023-03-25T04:35:06.356Z,0.63
2023-03-25T04:37:37.133Z,0.50
2023-03-25T04:40:08.312Z,0.82
2023-03-25T04:42:38.493Z,0.43
2023-03-25T04:45:07.556Z,0.50
2023-03-25T04:47:36.296Z,0.70
2023-03-25T04:50:05.095Z,0.65
2023-03-25T04:52:34.621Z,0.85
2023-03-25T04:55:05.289Z,0.98
2023-03-25T04:57:34.031Z,0.88
2023-03-25T05:00:06.907Z,0.63
2023-03-25T05:02:35.506Z,0.68
2023-03-25T05:05:04.922Z,1.52
2023-03-25T05:07:33.531Z,0.85
2023-03-25T05:10:02.931Z,0.82
2023-03-25T05:12:31.730Z,1.10
2023-03-25T05:15:00.315Z,0.70
2023-03-25T05:17:30.596Z,1.15
2023-03-25T05:19:59.225Z,1.00
2023-03-25T05:22:27.882Z,1.30
2023-03-25T05:24:56.504Z,0.93
2023-03-25T05:27:25.226Z,0.70
2023-03-25T05:29:54.285Z,1.10
2023-03-25T05:32:23.676Z,1.65
2023-03-25T05:34:53.782Z,1.10
2023-03-25T05:37:22.652Z,1.33
2023-03-25T05:39:51.808Z,1.95
2023-03-25T05:42:23.034Z,1.20
2023-03-25T05:44:52.152Z,1.20
2023-03-25T05:47:22.040Z,1.27
2023-03-25T05:49:50.946Z,1.20
2023-03-25T05:52:24.595Z,2.60
2023-03-25T05:54:53.407Z,1.30
2023-03-25T05:57:22.010Z,0.90
2023-03-25T05:59:51.266Z,1.67
2023-03-25T06:02:20.682Z,1.67
2023-03-25T06:04:51.256Z,1.10
2023-03-25T06:07:22.656Z,0.80
2023-03-25T06:09:54.366Z,1.05
2023-03-25T06:12:23.715Z,1.30
2023-03-25T06:14:54.480Z,1.23
2023-03-25T06:17:23.742Z,0.60
2023-03-25T06:19:52.909Z,1.23
2023-03-25T06:22:22.983Z,1.30
2023-03-25T06:24:52.474Z,1.30
2023-03-25T06:27:22.089Z,1.30
2023-03-25T06:29:50.957Z,1.23
2023-03-25T06:32:19.528Z,1.48
2023-03-25T06:34:48.214Z,1.58
2023-03-25T06:37:16.800Z,1.38
2023-03-25T06:39:49.943Z,2.03
2023-03-25T06:42:18.698Z,1.65
2023-03-25T06:44:47.258Z,5.40
2023-03-25T06:47:15.978Z,3.15
2023-03-25T06:49:44.573Z,4.75
2023-03-25T06:52:13.312Z,2.67
2023-03-25T06:54:42.031Z,5.20
2023-03-25T06:57:12.140Z,6.32
2023-03-25T06:59:41.046Z,5.50
2023-03-25T07:02:09.685Z,8.63
2023-03-25T07:04:38.525Z,6.07
2023-03-25T07:07:07.212Z,4.55
2023-03-25T07:09:36.021Z,2.97
2023-03-25T07:12:06.419Z,2.85
2023-03-25T07:14:38.466Z,3.10
2023-03-25T07:17:08.492Z,1.98
2023-03-25T07:19:37.127Z,1.80
2023-03-25T07:22:05.751Z,2.03
2023-03-25T07:24:34.493Z,3.70
2023-03-25T07:27:03.050Z,3.72
2023-03-25T07:29:31.843Z,2.10
2023-03-25T07:32:02.037Z,1.42
2023-03-25T07:34:30.956Z,2.00
2023-03-25T07:37:00.021Z,2.80
2023-03-25T07:39:28.429Z,1.50
2023-03-25T07:41:57.082Z,1.98
2023-03-25T07:44:25.640Z,2.97
2023-03-25T07:46:54.045Z,2.50
2023-03-25T07:49:24.171Z,2.70
2023-03-25T07:51:52.500Z,2.05
2023-03-25T07:54:22.473Z,1.80
2023-03-25T07:56:50.991Z,1.60
2023-03-25T07:59:19.520Z,1.67
2023-03-25T08:01:47.933Z,1.48
2023-03-25T08:04:16.272Z,1.90
2023-03-25T08:06:46.097Z,1.75
2023-03-25T08:09:14.474Z,1.42
2023-03-25T08:11:42.822Z,3.05
2023-03-25T08:14:11.299Z,2.55
2023-03-25T08:16:40.406Z,3.28
2023-03-25T08:19:09.039Z,2.63
2023-03-25T08:21:37.412Z,2.45
2023-03-25T08:24:07.936Z,3.03
2023-03-25T08:26:37.637Z,2.38
2023-03-25T08:29:07.719Z,2.47
2023-03-25T08:31:38.707Z,2.08
2023-03-25T08:34:07.815Z,1.50
2023-03-25T08:36:39.538Z,2.03
2023-03-25T08:39:12.116Z,1.45
2023-03-25T08:41:41.404Z,2.00
2023-03-25T08:44:10.221Z,1.60
2023-03-25T08:46:39.650Z,1.98
2023-03-25T08:49:08.405Z,1.77
2023-03-25T08:51:36.965Z,1.55
2023-03-25T08:54:05.812Z,2.45
2023-03-25T08:56:35.964Z,2.75
2023-03-25T08:59:04.586Z,1.05
2023-03-25T09:01:33.265Z,1.23
2023-03-25T09:04:02.043Z,2.38
2023-03-25T09:06:47.239Z,1.80
2023-03-25T09:09:17.321Z,1.40
2023-03-25T09:11:47.456Z,1.88
2023-03-25T09:14:16.118Z,1.55
2023-03-25T09:16:44.690Z,1.52
2023-03-25T09:19:13.009Z,1.63
2023-03-25T09:21:41.490Z,1.50
2023-03-25T09:24:10.545Z,1.45
2023-03-25T09:26:38.886Z,2.75
2023-03-25T09:29:08.710Z,0.93
2023-03-25T09:31:37.193Z,1.58
2023-03-25T09:34:06.507Z,1.40
2023-03-25T09:36:34.912Z,1.10
2023-03-25T09:39:03.569Z,1.75
2023-03-25T09:41:46.188Z,1.15
2023-03-25T09:44:23.113Z,0.95
2023-03-25T09:46:51.762Z,1.10
2023-03-25T09:49:25.207Z,1.45
2023-03-25T09:51:56.106Z,1.55
2023-03-25T09:54:27.043Z,1.17
2023-03-25T09:56:58.213Z,2.25
2023-03-25T09:59:40.056Z,1.23
2023-03-25T10:02:19.263Z,1.58
2023-03-25T10:05:04.594Z,1.75
2023-03-25T10:07:46.204Z,1.02
2023-03-25T10:10:24.510Z,1.45
2023-03-25T10:13:04.254Z,2.47
2023-03-25T10:15:39.698Z,1.30
2023-03-25T10:18:37.988Z,0.95
2023-03-25T10:21:12.805Z,1.13
2023-03-25T10:23:46.153Z,2.05
2023-03-25T10:26:19.037Z,1.10
2023-03-25T10:28:54.300Z,1.20
2023-03-25T10:31:27.815Z,1.10
2023-03-25T10:34:00.890Z,2.25
2023-03-25T10:36:35.005Z,2.28
2023-03-25T10:39:05.998Z,1.92
2023-03-25T10:41:38.127Z,1.27
2023-03-25T10:44:10.436Z,1.83
2023-03-25T10:46:47.728Z,1.10
2023-03-25T10:49:19.416Z,1.73
2023-03-25T10:51:49.046Z,1.20
2023-03-25T10:54:18.921Z,1.13
2023-03-25T10:56:49.362Z,0.98
2023-03-25T10:59:21.833Z,1.20
2023-03-25T11:01:54.584Z,1.42
2023-03-25T11:04:25.261Z,1.55
2023-03-25T11:06:57.591Z,1.40
2023-03-25T11:09:28.232Z,0.98
2023-03-25T11:11:56.859Z,1.25
2023-03-25T11:14:27.633Z,1.27
2023-03-25T11:17:00.567Z,1.50
2023-03-25T11:19:32.363Z,1.10
2023-03-25T11:22:04.665Z,3.55
2023-03-25T11:24:35.026Z,1.92
2023-03-25T11:27:04.250Z,1.58
2023-03-25T11:29:35.141Z,2.70
2023-03-25T11:32:10.046Z,1.52
2023-03-25T11:34:42.225Z,2.00
2023-03-25T11:37:19.216Z,1.83
2023-03-25T11:39:51.713Z,1.42
2023-03-25T11:42:32.636Z,1.05
2023-03-25T11:45:03.534Z,1.08
2023-03-25T11:47:35.710Z,1.17
2023-03-25T11:50:05.657Z,2.28
2023-03-25T11:52:41.425Z,1.40
2023-03-25T11:55:19.512Z,1.92
2023-03-25T11:57:49.021Z,1.52
2023-03-25T12:00:34.162Z,1.23
2023-03-25T12:03:07.041Z,2.25
2023-03-25T12:05:36.036Z,2.17
2023-03-25T12:08:15.588Z,1.20
2023-03-25T12:10:56.697Z,1.35
2023-03-25T12:13:37.256Z,2.00
2023-03-25T12:16:18.081Z,1.60
2023-03-25T12:19:01.293Z,0.98
2023-03-25T12:21:43.126Z,1.42
2023-03-25T12:24:25.834Z,1.90
2023-03-25T12:27:08.241Z,1.27
2023-03-25T12:29:43.019Z,1.85
2023-03-25T12:32:29.944Z,2.03
2023-03-25T12:35:18.739Z,2.30
2023-03-25T12:38:01.905Z,1.25
2023-03-25T12:40:42.557Z,1.73
2023-03-25T12:43:21.366Z,1.40
2023-03-25T12:46:10.698Z,1.85
2023-03-25T12:49:05.226Z,1.48
2023-03-25T12:51:43.794Z,1.45
2023-03-25T12:54:25.880Z,1.42
2023-03-25T12:57:01.139Z,1.50
2023-03-25T13:00:02.054Z,0.60
2023-03-25T13:02:55.544Z,1.58
2023-03-25T13:05:28.257Z,2.30
2023-03-25T13:08:01.629Z,1.05
2023-03-25T13:10:32.775Z,2.20
2023-03-25T13:13:02.660Z,1.35
2023-03-25T13:15:36.406Z,1.48
2023-03-25T13:18:10.546Z,1.15
2023-03-25T13:20:43.159Z,1.48
2023-03-25T13:23:21.541Z,2.00
2023-03-25T13:25:53.250Z,1.38
2023-03-25T13:28:25.646Z,1.40
2023-03-25T13:30:56.577Z,1.67
2023-03-25T13:33:26.632Z,1.17
2023-03-25T13:35:56.195Z,0.93
2023-03-25T13:38:28.606Z,0.93
2023-03-25T13:41:10.420Z,1.77
2023-03-25T13:43:47.612Z,3.63
2023-03-25T13:46:21.100Z,6.57
2023-03-25T13:48:54.109Z,3.60
2023-03-25T13:51:22.521Z,1.55
2023-03-25T13:53:56.908Z,1.98
2023-03-25T13:56:42.766Z,1.67
2023-03-25T13:59:45.941Z,1.23
2023-03-25T14:02:36.051Z,0.75
2023-03-25T14:05:35.122Z,1.10
2023-03-25T14:08:13.258Z,1.50
2023-03-25T14:10:50.136Z,1.63
2023-03-25T14:13:25.009Z,1.70
2023-03-25T14:16:00.325Z,1.05
2023-03-25T14:18:32.151Z,1.50
2023-03-25T14:21:15.321Z,1.10
2023-03-25T14:23:44.663Z,1.70
2023-03-25T14:26:18.869Z,0.80
2023-03-25T14:28:48.520Z,1.42
2023-03-25T14:31:27.589Z,1.10
2023-03-25T14:34:11.118Z,2.17
2023-03-25T14:36:55.686Z,0.85
2023-03-25T14:39:40.052Z,0.73
2023-03-25T14:42:14.417Z,1.02
2023-03-25T14:44:49.842Z,0.73
2023-03-25T14:47:28.755Z,1.17
2023-03-25T14:50:05.216Z,1.13
2023-03-25T14:52:35.176Z,1.35
2023-03-25T14:55:08.125Z,2.08
2023-03-25T14:57:42.353Z,1.08
2023-03-25T15:00:13.661Z,1.50
2023-03-25T15:02:43.316Z,1.83
2023-03-25T15:05:18.413Z,1.00
2023-03-25T15:07:48.843Z,0.70
2023-03-25T15:10:22.091Z,1.10
2023-03-25T15:12:53.976Z,1.08
2023-03-25T15:15:31.662Z,1.30
2023-03-25T15:18:01.036Z,1.25
2023-03-25T15:20:36.030Z,1.70
2023-03-25T15:23:33.345Z,1.30
2023-03-25T15:26:03.302Z,1.10
2023-03-25T15:29:07.884Z,1.00
2023-03-25T15:32:03.694Z,1.00
2023-03-25T15:34:44.868Z,0.88
2023-03-25T15:37:48.686Z,1.10
2023-03-25T15:40:32.784Z,1.70
2023-03-25T15:43:36.263Z,1.42
2023-03-25T15:46:31.729Z,2.05
2023-03-25T15:49:15.706Z,2.08
2023-03-25T15:51:55.898Z,1.13
2023-03-25T15:54:32.361Z,0.88
2023-03-25T15:57:06.273Z,1.23
2023-03-25T15:59:42.697Z,1.98
2023-03-25T16:02:21.275Z,1.48
2023-03-25T16:04:52.283Z,1.67
2023-03-25T16:07:23.607Z,1.75
2023-03-25T16:09:53.288Z,1.42
2023-03-25T16:12:23.710Z,1.75
2023-03-25T16:14:53.415Z,1.45
2023-03-25T16:17:24.521Z,1.33
2023-03-25T16:19:56.604Z,2.15
2023-03-25T16:22:28.615Z,1.70
2023-03-25T16:24:59.076Z,1.15
2023-03-25T16:27:31.505Z,1.17
2023-03-25T16:29:59.814Z,2.17
2023-03-25T16:32:33.907Z,1.90
2023-03-25T16:35:04.674Z,1.88
2023-03-25T16:37:34.099Z,2.13
2023-03-25T16:40:07.532Z,1.70
2023-03-25T16:42:37.360Z,1.55
2023-03-25T16:45:09.167Z,1.58
2023-03-25T16:47:38.174Z,2.25
2023-03-25T16:50:18.983Z,1.65
2023-03-25T16:52:48.216Z,1.80
2023-03-25T16:55:30.230Z,1.77
2023-03-25T16:58:02.402Z,1.38
2023-03-25T17:00:42.656Z,2.80
2023-03-25T17:03:20.230Z,1.88
2023-03-25T17:06:10.152Z,2.33
2023-03-25T17:08:38.634Z,1.50
2023-03-25T17:11:10.288Z,2.20
2023-03-25T17:13:43.714Z,1.83
2023-03-25T17:16:12.307Z,1.83
2023-03-25T17:18:41.195Z,2.40
2023-03-25T17:21:13.830Z,2.42
2023-03-25T17:23:45.786Z,1.83
2023-03-25T17:26:17.565Z,2.22
2023-03-25T17:28:46.940Z,2.22
2023-03-25T17:31:19.949Z,2.60
2023-03-25T17:33:52.781Z,2.58
2023-03-25T17:36:23.345Z,3.38
2023-03-25T17:38:53.485Z,3.45
2023-03-25T17:41:22.371Z,2.45
2023-03-25T17:43:54.256Z,4.53
2023-03-25T17:46:24.037Z,2.65
2023-03-25T17:48:53.597Z,4.00
2023-03-25T17:51:23.964Z,2.72
2023-03-25T17:53:52.590Z,3.33
2023-03-25T17:56:25.150Z,3.85
2023-03-25T17:58:54.638Z,4.38
2023-03-25T18:01:25.561Z,3.00
2023-03-25T18:03:54.634Z,3.05
2023-03-25T18:06:24.684Z,3.60
2023-03-25T18:08:53.587Z,3.60
2023-03-25T18:11:23.836Z,3.15
2023-03-25T18:13:52.185Z,5.20
2023-03-25T18:16:22.387Z,3.13
2023-03-25T18:18:51.065Z,5.47
2023-03-25T18:21:23.706Z,4.38
2023-03-25T18:23:52.403Z,3.55
2023-03-25T18:26:21.318Z,2.88
2023-03-25T18:28:49.855Z,3.88
2023-03-25T18:31:18.756Z,3.22
2023-03-25T18:33:48.495Z,3.85
2023-03-25T18:36:17.455Z,3.50
2023-03-25T18:38:47.780Z,2.85
2023-03-25T18:41:17.638Z,3.28
2023-03-25T18:43:46.274Z,3.08
2023-03-25T18:46:15.559Z,3.58
2023-03-25T18:48:44.628Z,4.03
2023-03-25T18:51:13.745Z,5.32
2023-03-25T18:53:42.644Z,5.22
2023-03-25T18:56:12.766Z,8.35
2023-03-25T18:58:41.467Z,4.35
2023-03-25T19:01:10.355Z,3.30
2023-03-25T19:03:41.944Z,3.72
2023-03-25T19:06:11.845Z,3.65
2023-03-25T19:08:41.142Z,3.90
2023-03-25T19:11:19.688Z,4.15
2023-03-25T19:13:51.649Z,4.57
2023-03-25T19:16:20.405Z,2.90
2023-03-25T19:18:49.087Z,3.60
2023-03-25T19:21:18.575Z,2.72
2023-03-25T19:23:47.374Z,4.03
2023-03-25T19:26:16.020Z,3.10
2023-03-25T19:28:44.684Z,3.30
2023-03-25T19:31:16.558Z,3.70
2023-03-25T19:33:45.334Z,4.22
2023-03-25T19:36:15.368Z,3.30
2023-03-25T19:38:44.188Z,4.03
2023-03-25T19:41:13.413Z,4.68
2023-03-25T19:43:42.343Z,3.60
2023-03-25T19:46:11.408Z,4.35
2023-03-25T19:48:41.714Z,3.72
2023-03-25T19:51:10.383Z,4.30
2023-03-25T19:53:39.176Z,4.82
2023-03-25T19:56:09.645Z,5.47
2023-03-25T19:58:38.238Z,5.28
2023-03-25T20:01:07.029Z,5.10
2023-03-25T20:03:38.566Z,6.25
2023-03-25T20:06:09.446Z,5.80
2023-03-25T20:08:38.080Z,6.45
2023-03-25T20:11:10.753Z,6.05
2023-03-25T20:13:39.378Z,7.15
2023-03-25T20:16:08.631Z,7.55
2023-03-25T20:18:37.324Z,6.13
2023-03-25T20:21:09.890Z,5.45
2023-03-25T20:23:38.604Z,5.78
2023-03-25T20:26:07.811Z,3.97
2023-03-25T20:28:37.286Z,5.70
2023-03-25T20:31:18.278Z,4.45
2023-03-25T20:33:48.631Z,4.55
2023-03-25T20:36:18.651Z,5.07
2023-03-25T20:38:57.214Z,7.25
2023-03-25T20:41:27.987Z,3.33
2023-03-25T20:43:56.659Z,6.05
2023-03-25T20:46:28.496Z,4.10
2023-03-25T20:48:57.943Z,3.42
2023-03-25T20:51:27.953Z,4.40
2023-03-25T20:53:58.033Z,3.47
2023-03-25T20:56:26.610Z,4.45
2023-03-25T20:58:55.236Z,4.13
2023-03-25T21:01:23.897Z,4.85
2023-03-25T21:03:53.420Z,3.70
2023-03-25T21:06:24.798Z,4.07
2023-03-25T21:08:58.330Z,5.15
2023-03-25T21:11:29.822Z,6.53
2023-03-25T21:13:58.407Z,4.10
2023-03-25T21:16:27.675Z,4.53
2023-03-25T21:18:58.235Z,5.22
2023-03-25T21:21:26.911Z,4.65
2023-03-25T21:23:57.056Z,4.05
2023-03-25T21:26:26.015Z,4.07
2023-03-25T21:28:54.620Z,3.40
2023-03-25T21:31:23.446Z,4.28
2023-03-25T21:33:52.971Z,6.15
2023-03-25T21:36:22.935Z,4.82
2023-03-25T21:38:52.373Z,4.72
2023-03-25T21:41:22.109Z,3.50
2023-03-25T21:43:50.848Z,3.65
2023-03-25T21:46:19.379Z,4.80
2023-03-25T21:48:48.560Z,4.90
2023-03-25T21:51:17.361Z,3.80
2023-03-25T21:53:46.429Z,4.40
2023-03-25T21:56:17.384Z,4.10
2023-03-25T21:58:48.542Z,3.55
2023-03-25T22:01:19.753Z,4.47
2023-03-25T22:03:48.557Z,4.15
2023-03-25T22:06:18.698Z,4.00
2023-03-25T22:08:47.697Z,5.53
2023-03-25T22:11:17.442Z,4.97
2023-03-25T22:13:47.639Z,4.40
2023-03-25T22:16:16.924Z,5.97
2023-03-25T22:18:46.065Z,5.85
2023-03-25T22:21:15.491Z,5.38
2023-03-25T22:23:45.077Z,6.18
2023-03-25T22:26:14.592Z,6.15
2023-03-25T22:28:43.558Z,6.93
2023-03-25T22:31:14.335Z,7.22
2023-03-25T22:33:43.170Z,6.68
2023-03-25T22:36:12.873Z,7.88
2023-03-25T22:38:41.547Z,8.15
2023-03-25T22:41:10.369Z,7.60
2023-03-25T22:43:39.015Z,7.20
2023-03-25T22:46:08.180Z,6.82
2023-03-25T22:48:39.417Z,6.78
2023-03-25T22:51:08.408Z,7.75
2023-03-25T22:53:37.022Z,6.97
2023-03-25T22:56:05.778Z,6.82
2023-03-25T22:58:34.404Z,6.32
2023-03-25T23:01:04.046Z,8.93
2023-03-25T23:03:32.859Z,6.85
2023-03-25T23:06:03.679Z,7.72
2023-03-25T23:08:35.152Z,6.47
2023-03-25T23:11:08.752Z,8.18
2023-03-25T23:13:37.800Z,7.75
2023-03-25T23:16:07.813Z,6.72
2023-03-25T23:18:39.237Z,6.22
2023-03-25T23:21:09.737Z,7.47
2023-03-25T23:23:38.331Z,7.25
2023-03-25T23:26:24.747Z,8.50
2023-03-25T23:28:54.220Z,7.45
2023-03-25T23:31:28.542Z,7.32
2023-03-25T23:33:58.410Z,6.95
2023-03-25T23:36:29.249Z,6.32
2023-03-25T23:38:58.823Z,7.22
2023-03-25T23:41:29.223Z,7.63
2023-03-25T23:43:57.871Z,7.43
2023-03-25T23:46:27.273Z,7.95
2023-03-25T23:49:02.006Z,6.85
2023-03-25T23:51:35.005Z,4.30
2023-03-25T23:54:03.911Z,5.40
2023-03-25T23:56:32.868Z,5.28
2023-03-25T23:59:02.376Z,5.75
